createdAt,value
2023-02-15T00:00:20.037Z,32.00
2023-02-15T00:02:48.353Z,25.65
2023-02-15T00:05:18.150Z,29.25
2023-02-15T00:07:46.439Z,26.67
2023-02-15T00:10:15.120Z,27.63
2023-02-15T00:12:43.892Z,25.65
2023-02-15T00:15:13.579Z,29.95
2023-02-15T00:17:41.869Z,24.00
2023-02-15T00:20:10.607Z,29.42
2023-02-15T00:22:40.253Z,23.95
2023-02-15T00:25:08.881Z,27.35
2023-02-15T00:27:37.156Z,28.00
2023-02-15T00:30:06.900Z,23.33
2023-02-15T00:32:35.257Z,25.25
2023-02-15T00:35:03.530Z,28.38
2023-02-15T00:37:31.823Z,27.20
2023-02-15T00:40:01.471Z,24.70
2023-02-15T00:42:29.744Z,25.52
2023-02-15T00:44:57.998Z,24.80
2023-02-15T00:47:26.533Z,25.00
2023-02-15T00:49:54.820Z,25.80
2023-02-15T00:52:23.085Z,22.77
2023-02-15T00:54:51.299Z,24.85
2023-02-15T00:57:20.904Z,24.73
2023-02-15T00:59:49.224Z,25.55
2023-02-15T01:02:17.503Z,23.67
2023-02-15T01:04:45.807Z,25.02
2023-02-15T01:07:14.159Z,24.27
2023-02-15T01:09:44.262Z,24.45
2023-02-15T01:12:12.541Z,23.13
2023-02-15T01:14:42.261Z,23.77
2023-02-15T01:17:10.516Z,26.20
2023-02-15T01:19:38.788Z,23.48
2023-02-15T01:22:07.034Z,23.20
2023-02-15T01:24:35.343Z,22.67
2023-02-15T01:27:03.602Z,22.30
2023-02-15T01:29:31.860Z,20.90
2023-02-15T01:32:01.525Z,23.60
2023-02-15T01:34:31.455Z,23.45
2023-02-15T01:36:59.683Z,22.85
2023-02-15T01:39:28.103Z,22.73
2023-02-15T01:41:56.389Z,21.85
2023-02-15T01:44:43.281Z,21.77
2023-02-15T01:47:13.147Z,22.58
2023-02-15T01:49:42.396Z,22.95
2023-02-15T01:52:11.228Z,23.92
2023-02-15T01:54:41.395Z,24.25
2023-02-15T01:57:11.906Z,22.98
2023-02-15T01:59:40.915Z,20.80
2023-02-15T02:02:10.684Z,21.98
2023-02-15T02:04:42.673Z,25.70
2023-02-15T02:07:12.601Z,21.70
2023-02-15T02:09:40.841Z,26.02
2023-02-15T02:12:09.371Z,21.45
2023-02-15T02:14:38.161Z,23.63
2023-02-15T02:17:10.296Z,20.73
2023-02-15T02:20:08.425Z,22.33
2023-02-15T02:22:52.673Z,23.88
2023-02-15T02:25:35.169Z,23.38
2023-02-15T02:28:09.146Z,20.80
2023-02-15T02:30:52.026Z,23.92
2023-02-15T02:33:27.705Z,23.73
2023-02-15T02:36:00.227Z,22.20
2023-02-15T02:38:30.924Z,27.13
2023-02-15T02:41:05.523Z,22.73
2023-02-15T02:43:36.384Z,24.50
2023-02-15T02:46:08.048Z,21.65
2023-02-15T02:48:37.675Z,26.48
2023-02-15T02:51:05.954Z,23.30
2023-02-15T02:53:36.136Z,22.98
2023-02-15T02:56:08.030Z,25.05
2023-02-15T02:58:40.199Z,25.50
2023-02-15T03:01:12.080Z,25.52
2023-02-15T03:03:43.979Z,22.75
2023-02-15T03:06:18.843Z,23.67
2023-02-15T03:08:50.163Z,26.40
2023-02-15T03:11:18.586Z,25.70
2023-02-15T03:13:47.794Z,23.08
2023-02-15T03:16:28.760Z,28.20
2023-02-15T03:18:59.744Z,24.33
2023-02-15T03:21:32.192Z,25.10
2023-02-15T03:24:02.468Z,21.30
2023-02-15T03:26:32.218Z,22.70
2023-02-15T03:29:01.681Z,25.75
2023-02-15T03:31:31.401Z,26.60
2023-02-15T03:34:02.866Z,22.88
2023-02-15T03:36:34.664Z,24.05
2023-02-15T03:39:07.171Z,25.48
2023-02-15T03:41:36.900Z,24.40
2023-02-15T03:44:08.436Z,22.58
2023-02-15T03:46:40.100Z,24.35
2023-02-15T03:49:11.632Z,25.63
2023-02-15T03:51:41.292Z,21.30
2023-02-15T03:54:10.902Z,22.52
2023-02-15T03:56:40.181Z,24.08
2023-02-15T03:59:25.966Z,22.55
2023-02-15T04:02:02.116Z,22.13
2023-02-15T04:04:37.181Z,23.73
2023-02-15T04:07:06.433Z,23.67
2023-02-15T04:09:52.529Z,23.33
2023-02-15T04:12:20.924Z,26.40
2023-02-15T04:15:07.016Z,26.10
2023-02-15T04:17:35.246Z,24.67
2023-02-15T04:20:22.850Z,24.55
2023-02-15T04:23:08.906Z,22.30
2023-02-15T04:25:37.193Z,24.85
2023-02-15T04:28:05.602Z,25.67
2023-02-15T04:30:33.940Z,24.95
2023-02-15T04:33:02.184Z,23.67
2023-02-15T04:35:32.694Z,21.23
2023-02-15T04:38:00.976Z,26.48
2023-02-15T04:40:29.234Z,28.63
2023-02-15T04:42:57.497Z,24.13
2023-02-15T04:45:25.762Z,25.88
2023-02-15T04:47:53.998Z,22.98
2023-02-15T04:50:22.266Z,27.50
2023-02-15T04:52:51.927Z,27.02
2023-02-15T04:55:20.229Z,25.05
2023-02-15T04:57:49.351Z,26.00
2023-02-15T05:00:17.912Z,24.33
2023-02-15T05:02:46.159Z,22.83
2023-02-15T05:05:16.111Z,22.10
2023-02-15T05:08:03.370Z,22.23
2023-02-15T05:10:32.985Z,21.60
2023-02-15T05:13:01.278Z,20.65
2023-02-15T05:15:29.552Z,21.35
2023-02-15T05:17:57.799Z,22.50
2023-02-15T05:20:26.095Z,20.13
2023-02-15T05:22:59.039Z,21.55
2023-02-15T05:25:44.795Z,20.38
2023-02-15T05:28:37.481Z,19.40
2023-02-15T05:31:08.708Z,20.73
2023-02-15T05:33:37.788Z,17.20
2023-02-15T05:36:06.594Z,21.77
2023-02-15T05:38:35.526Z,19.00
2023-02-15T05:41:03.784Z,20.73
2023-02-15T05:43:33.832Z,23.20
2023-02-15T05:46:02.957Z,22.85
2023-02-15T05:48:31.513Z,23.65
2023-02-15T05:51:00.702Z,20.15
2023-02-15T05:53:29.284Z,20.23
2023-02-15T05:56:00.687Z,22.05
2023-02-15T05:58:29.553Z,20.63
2023-02-15T06:00:59.403Z,21.90
2023-02-15T06:03:29.655Z,21.85
2023-02-15T06:05:58.031Z,19.17
2023-02-15T06:08:26.328Z,20.25
2023-02-15T06:10:54.601Z,24.85
2023-02-15T06:13:22.852Z,22.13
2023-02-15T06:15:51.175Z,19.55
2023-02-15T06:18:20.790Z,19.58
2023-02-15T06:20:49.493Z,19.23
2023-02-15T06:23:17.789Z,22.40
2023-02-15T06:25:47.078Z,22.02
2023-02-15T06:28:15.390Z,20.55
2023-02-15T06:30:43.685Z,19.10
2023-02-15T06:33:11.965Z,22.65
2023-02-15T06:35:41.593Z,23.08
2023-02-15T06:38:09.863Z,21.40
2023-02-15T06:40:38.150Z,22.33
2023-02-15T06:43:06.921Z,20.85
2023-02-15T06:45:35.325Z,22.55
2023-02-15T06:48:03.595Z,21.92
2023-02-15T06:50:31.932Z,19.83
2023-02-15T06:53:01.704Z,22.92
2023-02-15T06:55:29.937Z,20.83
2023-02-15T06:57:58.204Z,20.45
2023-02-15T07:00:26.626Z,18.77
2023-02-15T07:02:57.233Z,24.17
2023-02-15T07:05:25.960Z,21.05
2023-02-15T07:07:54.266Z,22.75
2023-02-15T07:10:24.059Z,19.48
2023-02-15T07:12:51.365Z,21.92
2023-02-15T07:15:21.706Z,21.17
2023-02-15T07:17:50.164Z,21.27
2023-02-15T07:20:19.101Z,19.52
2023-02-15T07:22:47.606Z,23.92
2023-02-15T07:25:16.210Z,22.80
2023-02-15T07:27:45.996Z,19.48
2023-02-15T07:30:15.818Z,21.15
2023-02-15T07:32:58.090Z,21.73
2023-02-15T07:35:26.471Z,18.33
2023-02-15T07:37:54.921Z,20.55
2023-02-15T07:40:24.490Z,20.48
2023-02-15T07:42:55.761Z,23.17
2023-02-15T07:45:24.229Z,22.85
2023-02-15T07:47:52.573Z,20.98
2023-02-15T07:50:21.004Z,31.35
2023-02-15T07:52:49.295Z,21.70
2023-02-15T07:55:17.628Z,19.25
2023-02-15T07:57:46.362Z,18.83
2023-02-15T08:00:17.677Z,17.25
2023-02-15T08:02:50.115Z,18.80
2023-02-15T08:05:20.314Z,20.83
2023-02-15T08:07:48.593Z,18.63
2023-02-15T08:10:36.890Z,19.67
2023-02-15T08:13:05.108Z,22.55
2023-02-15T08:15:34.727Z,17.80
2023-02-15T08:18:03.347Z,20.13
2023-02-15T08:20:31.631Z,20.83
2023-02-15T08:23:00.101Z,18.42
2023-02-15T08:25:28.418Z,22.60
2023-02-15T08:27:56.681Z,20.23
2023-02-15T08:30:26.094Z,18.13
2023-02-15T08:32:55.736Z,20.45
2023-02-15T08:35:24.007Z,19.40
2023-02-15T08:37:52.267Z,20.15
2023-02-15T08:40:20.510Z,18.30
2023-02-15T08:42:48.784Z,21.05
2023-02-15T08:45:17.132Z,19.52
2023-02-15T08:47:45.593Z,19.88
2023-02-15T08:50:15.213Z,22.45
2023-02-15T08:52:43.532Z,21.10
2023-02-15T08:55:11.793Z,22.02
2023-02-15T08:57:45.834Z,20.95
2023-02-15T09:00:14.580Z,20.58
2023-02-15T09:02:42.881Z,22.90
2023-02-15T09:05:11.227Z,22.75
2023-02-15T09:07:40.830Z,20.40
2023-02-15T09:10:10.121Z,20.23
2023-02-15T09:12:38.405Z,23.02
2023-02-15T09:15:06.938Z,20.98
2023-02-15T09:17:35.188Z,21.67
2023-02-15T09:20:03.495Z,23.05
2023-02-15T09:22:32.268Z,20.30
2023-02-15T09:25:01.898Z,23.48
2023-02-15T09:27:30.190Z,21.17
2023-02-15T09:29:58.514Z,21.90
2023-02-15T09:32:26.844Z,23.73
2023-02-15T09:34:55.120Z,24.35
2023-02-15T09:37:23.395Z,23.55
2023-02-15T09:39:51.635Z,24.00
2023-02-15T09:42:32.591Z,24.65
2023-02-15T09:45:05.850Z,24.83
2023-02-15T09:47:43.222Z,22.95
2023-02-15T09:50:13.815Z,23.58
2023-02-15T09:52:52.707Z,22.77
2023-02-15T09:55:27.419Z,22.80
2023-02-15T09:58:03.553Z,19.92
2023-02-15T10:00:34.358Z,24.63
2023-02-15T10:03:12.858Z,24.30
2023-02-15T10:05:48.745Z,20.70
2023-02-15T10:08:26.760Z,24.00
2023-02-15T10:11:19.940Z,24.55
2023-02-15T10:13:55.760Z,24.40
2023-02-15T10:16:29.705Z,24.00
2023-02-15T10:19:03.094Z,27.92
2023-02-15T10:21:42.502Z,23.20
2023-02-15T10:24:26.917Z,25.63
2023-02-15T10:26:56.500Z,25.67
2023-02-15T10:29:29.090Z,23.88
2023-02-15T10:32:02.022Z,23.75
2023-02-15T10:34:35.354Z,22.60
2023-02-15T10:37:21.513Z,21.05
2023-02-15T10:39:55.675Z,25.63
2023-02-15T10:42:30.493Z,24.98
2023-02-15T10:45:07.311Z,23.27
2023-02-15T10:47:42.820Z,23.60
2023-02-15T10:50:20.155Z,25.60
2023-02-15T10:52:55.672Z,21.13
2023-02-15T10:55:27.403Z,26.05
2023-02-15T10:58:01.258Z,26.73
2023-02-15T11:00:34.568Z,22.48
2023-02-15T11:03:08.866Z,25.88
2023-02-15T11:05:39.967Z,26.55
2023-02-15T11:08:09.874Z,28.05
2023-02-15T11:10:41.142Z,27.63
2023-02-15T11:13:13.164Z,26.33
2023-02-15T11:15:46.644Z,22.42
2023-02-15T11:18:18.630Z,27.23
2023-02-15T11:20:52.231Z,25.10
2023-02-15T11:23:20.514Z,27.08
2023-02-15T11:25:50.243Z,26.23
2023-02-15T11:28:21.375Z,23.92
2023-02-15T11:30:53.585Z,24.67
2023-02-15T11:33:25.165Z,26.45
2023-02-15T11:35:56.621Z,23.63
2023-02-15T11:38:27.801Z,26.35
2023-02-15T11:40:58.247Z,26.00
2023-02-15T11:43:30.128Z,27.38
2023-02-15T11:46:00.104Z,24.77
2023-02-15T11:48:28.573Z,23.48
2023-02-15T11:50:57.097Z,25.55
2023-02-15T11:53:27.944Z,26.05
2023-02-15T11:55:56.861Z,26.75
2023-02-15T11:58:29.175Z,25.60
2023-02-15T12:00:59.904Z,23.73
2023-02-15T12:03:31.783Z,23.90
2023-02-15T12:06:03.044Z,27.77
2023-02-15T12:08:36.036Z,24.05
2023-02-15T12:11:07.895Z,25.42
2023-02-15T12:13:36.222Z,24.35
2023-02-15T12:16:11.445Z,26.63
2023-02-15T12:18:41.878Z,22.88
2023-02-15T12:21:12.745Z,27.23
2023-02-15T12:23:44.312Z,24.08
2023-02-15T12:26:12.576Z,25.98
2023-02-15T12:28:43.192Z,27.05
2023-02-15T12:31:20.649Z,24.40
2023-02-15T12:33:50.448Z,25.15
2023-02-15T12:36:21.123Z,27.95
2023-02-15T12:39:04.302Z,24.02
2023-02-15T12:41:32.966Z,23.93
2023-02-15T12:44:14.295Z,25.42
2023-02-15T12:46:42.899Z,23.88
2023-02-15T12:49:20.512Z,26.23
2023-02-15T12:51:50.297Z,26.45
2023-02-15T12:54:23.584Z,29.75
2023-02-15T12:56:51.942Z,25.05
2023-02-15T12:59:23.165Z,27.55
2023-02-15T13:01:52.143Z,28.73
2023-02-15T13:04:24.810Z,26.15
2023-02-15T13:06:54.384Z,25.80
2023-02-15T13:09:23.809Z,26.70
2023-02-15T13:11:52.075Z,23.27
2023-02-15T13:14:21.758Z,27.23
2023-02-15T13:16:51.712Z,25.00
2023-02-15T13:19:20.922Z,25.33
2023-02-15T13:21:51.425Z,25.65
2023-02-15T13:24:24.986Z,26.17
2023-02-15T13:27:03.485Z,24.92
2023-02-15T13:29:41.748Z,25.02
2023-02-15T13:32:18.430Z,25.40
2023-02-15T13:34:46.745Z,23.75
2023-02-15T13:37:19.271Z,26.48
2023-02-15T13:39:50.594Z,25.88
2023-02-15T13:42:23.179Z,24.45
2023-02-15T13:44:57.942Z,27.05
2023-02-15T13:47:29.902Z,26.48
2023-02-15T13:50:07.857Z,26.23
2023-02-15T13:52:42.651Z,26.73
2023-02-15T13:55:49.521Z,28.00
2023-02-15T13:58:42.831Z,28.45
2023-02-15T14:01:14.435Z,25.05
2023-02-15T14:04:03.943Z,25.73
2023-02-15T14:06:56.565Z,25.33
2023-02-15T14:09:33.747Z,26.30
2023-02-15T14:12:10.594Z,28.23
2023-02-15T14:14:44.436Z,24.25
2023-02-15T14:19:46.658Z,23.73
2023-02-15T14:22:22.825Z,24.40
2023-02-15T14:24:58.501Z,27.52
2023-02-15T14:27:30.150Z,26.55
2023-02-15T14:29:59.548Z,24.77
2023-02-15T14:32:31.037Z,25.20
2023-02-15T14:35:00.648Z,24.63
2023-02-15T14:37:34.036Z,28.15
2023-02-15T14:40:24.322Z,28.55
2023-02-15T14:42:55.751Z,24.42
2023-02-15T14:45:27.244Z,25.77
2023-02-15T14:48:00.695Z,25.75
2023-02-15T14:50:48.355Z,24.17
2023-02-15T14:53:37.323Z,25.92
2023-02-15T14:56:25.482Z,23.50
2023-02-15T14:58:59.440Z,23.45
2023-02-15T15:03:57.388Z,23.80
2023-02-15T15:06:28.428Z,22.88
2023-02-15T15:09:00.503Z,25.38
2023-02-15T15:11:44.500Z,24.08
2023-02-15T15:14:41.949Z,24.98
2023-02-15T15:17:13.197Z,25.73
2023-02-15T15:20:14.436Z,22.17
2023-02-15T15:22:45.913Z,26.70
2023-02-15T15:25:35.441Z,24.05
2023-02-15T15:28:05.571Z,26.13
2023-02-15T15:31:01.016Z,24.70
2023-02-15T15:33:46.996Z,21.80
2023-02-15T15:36:40.419Z,22.60
2023-02-15T15:39:15.480Z,24.85
2023-02-15T15:41:44.478Z,22.90
2023-02-15T15:44:38.426Z,24.95
2023-02-15T15:47:21.687Z,23.70
2023-02-15T15:49:52.575Z,25.93
2023-02-15T15:52:22.675Z,27.05
2023-02-15T15:54:55.885Z,24.83
2023-02-15T15:57:26.476Z,24.35
2023-02-15T15:59:54.951Z,24.90
2023-02-15T16:02:24.692Z,23.73
2023-02-15T16:04:53.247Z,23.70
2023-02-15T16:07:28.432Z,27.23
2023-02-15T16:09:57.412Z,25.80
2023-02-15T16:12:27.715Z,25.05
2023-02-15T16:14:57.423Z,27.75
2023-02-15T16:17:30.097Z,25.80
2023-02-15T16:20:23.007Z,26.48
2023-02-15T16:22:55.878Z,24.60
2023-02-15T16:25:31.809Z,25.23
2023-02-15T16:28:08.440Z,25.95
2023-02-15T16:30:40.237Z,26.20
2023-02-15T16:33:28.392Z,25.10
2023-02-15T16:36:05.959Z,27.17
2023-02-15T16:38:49.742Z,24.75
2023-02-15T16:41:18.910Z,27.13
2023-02-15T16:43:48.518Z,25.25
2023-02-15T16:46:21.678Z,28.67
2023-02-15T16:48:53.959Z,28.27
2023-02-15T16:51:24.068Z,31.83
2023-02-15T16:53:53.667Z,26.05
2023-02-15T16:56:26.459Z,29.27
2023-02-15T16:58:55.612Z,29.13
2023-02-15T17:01:35.786Z,28.40
2023-02-15T17:04:15.929Z,28.30
2023-02-15T17:07:03.062Z,29.35
2023-02-15T17:09:32.913Z,29.30
2023-02-15T17:12:03.135Z,28.67
2023-02-15T17:14:34.542Z,31.05
2023-02-15T17:17:05.025Z,33.70
2023-02-15T17:19:35.494Z,40.08
2023-02-15T17:22:04.897Z,54.75
2023-02-15T17:24:37.964Z,43.65
2023-02-15T17:27:07.983Z,35.58
2023-02-15T17:29:37.253Z,33.35
2023-02-15T17:32:06.354Z,37.33
2023-02-15T17:34:46.495Z,43.38
2023-02-15T17:37:15.139Z,40.35
2023-02-15T17:39:43.449Z,35.08
2023-02-15T17:42:11.875Z,40.55
2023-02-15T17:44:43.105Z,64.55
2023-02-15T17:47:15.284Z,57.17
2023-02-15T17:49:46.388Z,77.25
2023-02-15T17:52:16.195Z,71.72
2023-02-15T17:55:04.632Z,55.05
2023-02-15T17:57:33.148Z,49.63
2023-02-15T18:00:19.223Z,70.85
2023-02-15T18:03:06.171Z,83.10
2023-02-15T18:05:52.203Z,72.07
2023-02-15T18:08:43.982Z,62.88
2023-02-15T18:11:30.044Z,63.88
2023-02-15T18:14:01.396Z,59.42
2023-02-15T18:16:31.046Z,69.70
2023-02-15T18:18:59.568Z,115.00
2023-02-15T18:21:27.988Z,128.98
2023-02-15T18:23:57.607Z,86.18
2023-02-15T18:26:27.002Z,94.38
2023-02-15T18:28:55.384Z,78.55
2023-02-15T18:31:24.807Z,55.38
2023-02-15T18:33:55.391Z,46.47
2023-02-15T18:36:24.665Z,54.88
2023-02-15T18:38:54.199Z,50.55
2023-02-15T18:41:24.180Z,37.65
2023-02-15T18:43:53.842Z,33.88
2023-02-15T18:46:22.300Z,29.83
2023-02-15T18:48:50.621Z,35.17
2023-02-15T18:51:20.212Z,32.20
2023-02-15T18:53:49.014Z,32.25
2023-02-15T18:56:18.340Z,33.65
2023-02-15T18:58:49.174Z,35.97
2023-02-15T19:01:18.288Z,32.83
2023-02-15T19:03:49.849Z,32.78
2023-02-15T19:06:19.616Z,32.90
2023-02-15T19:08:49.217Z,37.75
2023-02-15T19:11:18.746Z,35.30
2023-02-15T19:13:51.876Z,36.38
2023-02-15T19:16:31.202Z,34.63
2023-02-15T19:18:59.671Z,34.63
2023-02-15T19:21:28.958Z,39.38
2023-02-15T19:23:59.919Z,36.08
2023-02-15T19:26:44.464Z,40.65
2023-02-15T19:29:15.939Z,37.85
2023-02-15T19:31:44.473Z,40.53
2023-02-15T19:34:15.388Z,35.40
2023-02-15T19:36:44.361Z,34.55
2023-02-15T19:39:22.010Z,37.92
2023-02-15T19:41:50.286Z,37.00
2023-02-15T19:44:19.893Z,37.85
2023-02-15T19:46:48.449Z,30.08
2023-02-15T19:49:16.721Z,33.58
2023-02-15T19:51:45.115Z,36.30
2023-02-15T19:54:20.542Z,37.00
2023-02-15T19:56:48.967Z,32.30
2023-02-15T19:59:23.970Z,37.65
2023-02-15T20:01:52.483Z,45.65
2023-02-15T20:04:20.805Z,37.90
2023-02-15T20:06:50.070Z,38.83
2023-02-15T20:09:20.598Z,37.53
2023-02-15T20:11:49.243Z,37.13
2023-02-15T20:14:17.543Z,35.80
2023-02-15T20:16:47.666Z,40.47
2023-02-15T20:19:16.094Z,38.92
2023-02-15T20:21:45.299Z,35.55
2023-02-15T20:24:15.785Z,35.47
2023-02-15T20:26:44.187Z,36.95
2023-02-15T20:29:15.191Z,37.85
2023-02-15T20:31:49.125Z,42.58
2023-02-15T20:34:20.707Z,40.85
2023-02-15T20:36:49.404Z,37.33
2023-02-15T20:39:20.481Z,37.85
2023-02-15T20:41:48.807Z,40.58
2023-02-15T20:44:22.156Z,33.45
2023-02-15T20:46:52.973Z,42.92
2023-02-15T20:49:24.203Z,41.08
2023-02-15T20:51:58.710Z,41.75
2023-02-15T20:54:33.474Z,39.25
2023-02-15T20:57:02.216Z,41.47
2023-02-15T20:59:32.037Z,40.65
2023-02-15T21:02:06.320Z,38.75
2023-02-15T21:04:38.135Z,33.88
2023-02-15T21:07:09.211Z,35.53
2023-02-15T21:09:41.735Z,38.45
2023-02-15T21:12:14.533Z,36.90
2023-02-15T21:14:43.048Z,35.43
2023-02-15T21:17:15.499Z,41.20
2023-02-15T21:19:52.083Z,37.78
2023-02-15T21:22:23.764Z,38.08
2023-02-15T21:24:57.427Z,37.88
2023-02-15T21:27:27.416Z,41.65
2023-02-15T21:29:55.752Z,39.72
2023-02-15T21:32:33.459Z,38.17
2023-02-15T21:35:01.921Z,41.92
2023-02-15T21:37:33.428Z,36.63
2023-02-15T21:40:02.760Z,39.40
2023-02-15T21:42:49.064Z,35.20
2023-02-15T21:45:35.487Z,35.28
2023-02-15T21:48:05.481Z,31.02
2023-02-15T21:50:51.825Z,30.77
2023-02-15T21:53:22.724Z,36.38
2023-02-15T21:55:53.974Z,33.92
2023-02-15T21:58:24.494Z,32.22
2023-02-15T22:00:54.861Z,33.75
2023-02-15T22:03:25.304Z,29.75
2023-02-15T22:05:53.947Z,34.40
2023-02-15T22:08:22.199Z,35.20
2023-02-15T22:10:50.662Z,34.92
2023-02-15T22:13:28.380Z,35.58
2023-02-15T22:15:59.501Z,33.08
2023-02-15T22:18:33.398Z,34.63
2023-02-15T22:21:03.123Z,33.83
2023-02-15T22:23:31.859Z,36.72
2023-02-15T22:26:04.123Z,39.03
2023-02-15T22:28:33.808Z,36.80
2023-02-15T22:31:02.695Z,38.90
2023-02-15T22:33:34.014Z,36.85
2023-02-15T22:36:02.468Z,37.75
2023-02-15T22:38:46.488Z,32.08
2023-02-15T22:41:18.918Z,32.03
2023-02-15T22:43:52.983Z,34.47
2023-02-15T22:46:23.047Z,32.85
2023-02-15T22:48:52.801Z,33.85
2023-02-15T22:51:22.584Z,34.53
2023-02-15T22:53:52.227Z,32.95
2023-02-15T22:56:22.317Z,30.90
2023-02-15T22:58:51.110Z,28.23
2023-02-15T23:01:23.839Z,33.75
2023-02-15T23:03:53.600Z,35.80
2023-02-15T23:06:21.931Z,34.28
2023-02-15T23:08:50.166Z,32.72
2023-02-15T23:11:18.886Z,31.80
2023-02-15T23:13:49.025Z,34.30
2023-02-15T23:16:19.260Z,33.65
2023-02-15T23:18:48.121Z,36.28
2023-02-15T23:21:21.247Z,29.17
2023-02-15T23:23:50.234Z,32.35
2023-02-15T23:26:27.771Z,33.78
2023-02-15T23:28:57.073Z,30.60
2023-02-15T23:31:26.738Z,39.35
2023-02-15T23:33:55.578Z,34.22
2023-02-15T23:36:27.675Z,35.47
2023-02-15T23:38:59.779Z,36.40
2023-02-15T23:41:28.001Z,32.08
2023-02-15T23:43:57.807Z,37.80
2023-02-15T23:46:27.973Z,34.75
2023-02-15T23:48:56.486Z,35.47
2023-02-15T23:51:35.183Z,32.70
2023-02-15T23:54:10.002Z,37.58
2023-02-15T23:56:38.808Z,31.27
2023-02-15T23:59:07.382Z,30.20
